sensor_id;sensor_type;location;lat;lon;timestamp;temperature;humidity
7206;DHT22;3644;53.480;10.004;2022-12-29T00:02:20;10.30;99.90
7206;DHT22;3644;53.480;10.004;2022-12-29T00:04:45;10.40;99.90
7206;DHT22;3644;53.480;10.004;2022-12-29T00:07:11;10.50;99.90
7206;DHT22;3644;53.480;10.004;2022-12-29T00:09:36;10.50;99.90
7206;DHT22;3644;53.480;10.004;2022-12-29T00:12:03;10.60;99.90
7206;DHT22;3644;53.480;10.004;2022-12-29T00:14:29;10.60;99.90
7206;DHT22;3644;53.480;10.004;2022-12-29T00:17:13;10.60;99.90
7206;DHT22;3644;53.480;10.004;2022-12-29T00:19:39;10.60;99.90
7206;DHT22;3644;53.480;10.004;2022-12-29T00:22:23;10.70;99.90
7206;DHT22;3644;53.480;10.004;2022-12-29T00:25:09;10.60;99.90
7206;DHT22;3644;53.480;10.004;2022-12-29T00:27:54;10.70;99.90
7206;DHT22;3644;53.480;10.004;2022-12-29T00:30:38;10.70;99.90
7206;DHT22;3644;53.480;10.004;2022-12-29T00:33:26;10.70;99.90
7206;DHT22;3644;53.480;10.004;2022-12-29T00:36:17;10.70;99.90
7206;DHT22;3644;53.480;10.004;2022-12-29T00:38:48;10.80;99.90
7206;DHT22;3644;53.480;10.004;2022-12-29T00:41:33;10.70;99.90
7206;DHT22;3644;53.480;10.004;2022-12-29T00:44:17;10.70;99.90
7206;DHT22;3644;53.480;10.004;2022-12-29T00:46:43;10.70;99.90
7206;DHT22;3644;53.480;10.004;2022-12-29T00:49:10;10.70;99.90
7206;DHT22;3644;53.480;10.004;2022-12-29T00:51:59;10.70;99.90
7206;DHT22;3644;53.480;10.004;2022-12-29T00:54:25;10.70;99.90
7206;DHT22;3644;53.480;10.004;2022-12-29T00:56:52;10.70;99.90
7206;DHT22;3644;53.480;10.004;2022-12-29T00:59:18;10.70;99.90
7206;DHT22;3644;53.480;10.004;2022-12-29T01:01:44;10.70;99.90
7206;DHT22;3644;53.480;10.004;2022-12-29T01:04:10;10.60;99.90
7206;DHT22;3644;53.480;10.004;2022-12-29T01:06:38;10.70;99.90
7206;DHT22;3644;53.480;10.004;2022-12-29T01:09:05;10.60;99.90
7206;DHT22;3644;53.480;10.004;2022-12-29T01:11:50;10.60;99.90
7206;DHT22;3644;53.480;10.004;2022-12-29T01:14:16;10.70;99.90
7206;DHT22;3644;53.480;10.004;2022-12-29T01:16:42;10.80;99.90
7206;DHT22;3644;53.480;10.004;2022-12-29T01:19:08;10.90;99.90
7206;DHT22;3644;53.480;10.004;2022-12-29T01:21:33;10.80;99.90
7206;DHT22;3644;53.480;10.004;2022-12-29T01:23:59;10.90;99.90
7206;DHT22;3644;53.480;10.004;2022-12-29T01:26:24;10.90;99.90
7206;DHT22;3644;53.480;10.004;2022-12-29T01:28:50;11.00;99.90
7206;DHT22;3644;53.480;10.004;2022-12-29T01:31:15;11.00;99.90
7206;DHT22;3644;53.480;10.004;2022-12-29T01:33:42;11.00;99.90
7206;DHT22;3644;53.480;10.004;2022-12-29T01:36:10;11.00;99.90
7206;DHT22;3644;53.480;10.004;2022-12-29T01:38:36;11.10;99.90
7206;DHT22;3644;53.480;10.004;2022-12-29T01:41:03;11.10;99.90
7206;DHT22;3644;53.480;10.004;2022-12-29T01:46:23;11.20;99.90
7206;DHT22;3644;53.480;10.004;2022-12-29T01:48:57;11.20;99.90
7206;DHT22;3644;53.480;10.004;2022-12-29T01:51:25;11.20;99.90
7206;DHT22;3644;53.480;10.004;2022-12-29T01:53:53;11.20;99.90
7206;DHT22;3644;53.480;10.004;2022-12-29T01:56:21;11.20;99.90
7206;DHT22;3644;53.480;10.004;2022-12-29T01:58:50;11.30;99.90
7206;DHT22;3644;53.480;10.004;2022-12-29T02:01:19;11.20;99.90
7206;DHT22;3644;53.480;10.004;2022-12-29T02:03:45;11.30;99.90
7206;DHT22;3644;53.480;10.004;2022-12-29T02:06:14;11.30;99.90
7206;DHT22;3644;53.480;10.004;2022-12-29T02:08:42;11.30;99.90
7206;DHT22;3644;53.480;10.004;2022-12-29T02:11:09;11.30;99.90
7206;DHT22;3644;53.480;10.004;2022-12-29T02:13:34;11.30;99.90
7206;DHT22;3644;53.480;10.004;2022-12-29T02:21:48;11.30;99.90
7206;DHT22;3644;53.480;10.004;2022-12-29T02:27:40;11.30;99.90
7206;DHT22;3644;53.480;10.004;2022-12-29T02:33:19;11.30;99.90
7206;DHT22;3644;53.480;10.004;2022-12-29T02:35:52;11.30;99.90
7206;DHT22;3644;53.480;10.004;2022-12-29T02:44:03;11.30;99.90
7206;DHT22;3644;53.480;10.004;2022-12-29T02:52:19;11.30;99.90
7206;DHT22;3644;53.480;10.004;2022-12-29T02:54:48;11.40;99.90
7206;DHT22;3644;53.480;10.004;2022-12-29T02:59:43;11.30;99.90
7206;DHT22;3644;53.480;10.004;2022-12-29T03:13:19;11.30;99.90
7206;DHT22;3644;53.480;10.004;2022-12-29T03:18:49;11.30;99.90
7206;DHT22;3644;53.480;10.004;2022-12-29T03:21:23;11.40;99.90
7206;DHT22;3644;53.480;10.004;2022-12-29T03:24:11;11.40;99.90
7206;DHT22;3644;53.480;10.004;2022-12-29T03:26:37;11.40;99.90
7206;DHT22;3644;53.480;10.004;2022-12-29T03:29:05;11.50;99.90
7206;DHT22;3644;53.480;10.004;2022-12-29T03:31:33;11.50;99.90
7206;DHT22;3644;53.480;10.004;2022-12-29T03:33:59;11.40;99.90
7206;DHT22;3644;53.480;10.004;2022-12-29T03:36:35;11.40;99.90
7206;DHT22;3644;53.480;10.004;2022-12-29T03:39:09;11.50;99.90
7206;DHT22;3644;53.480;10.004;2022-12-29T03:41:38;11.40;99.90
7206;DHT22;3644;53.480;10.004;2022-12-29T03:44:08;11.50;99.90
7206;DHT22;3644;53.480;10.004;2022-12-29T03:46:35;11.50;99.90
7206;DHT22;3644;53.480;10.004;2022-12-29T03:49:00;11.60;99.90
7206;DHT22;3644;53.480;10.004;2022-12-29T03:51:26;11.50;99.90
7206;DHT22;3644;53.480;10.004;2022-12-29T03:53:51;11.50;99.90
7206;DHT22;3644;53.480;10.004;2022-12-29T03:56:17;11.50;99.90
7206;DHT22;3644;53.480;10.004;2022-12-29T03:58:42;11.50;99.90
7206;DHT22;3644;53.480;10.004;2022-12-29T04:01:08;11.60;99.90
7206;DHT22;3644;53.480;10.004;2022-12-29T04:03:33;11.50;99.90
7206;DHT22;3644;53.480;10.004;2022-12-29T04:05:59;11.40;99.90
7206;DHT22;3644;53.480;10.004;2022-12-29T04:08:24;11.40;99.90
7206;DHT22;3644;53.480;10.004;2022-12-29T04:10:50;11.50;99.90
7206;DHT22;3644;53.480;10.004;2022-12-29T04:13:16;11.50;99.90
7206;DHT22;3644;53.480;10.004;2022-12-29T04:15:43;11.50;99.90
7206;DHT22;3644;53.480;10.004;2022-12-29T04:18:09;11.60;99.90
7206;DHT22;3644;53.480;10.004;2022-12-29T04:20:35;11.50;99.90
7206;DHT22;3644;53.480;10.004;2022-12-29T04:23:19;11.50;99.90
7206;DHT22;3644;53.480;10.004;2022-12-29T04:25:45;11.50;99.90
7206;DHT22;3644;53.480;10.004;2022-12-29T04:28:12;11.60;99.90
7206;DHT22;3644;53.480;10.004;2022-12-29T04:30:38;11.60;99.90
7206;DHT22;3644;53.480;10.004;2022-12-29T04:33:03;11.60;99.90
7206;DHT22;3644;53.480;10.004;2022-12-29T04:35:29;11.60;99.90
7206;DHT22;3644;53.480;10.004;2022-12-29T04:37:54;11.60;99.90
7206;DHT22;3644;53.480;10.004;2022-12-29T04:40:20;11.60;99.90
7206;DHT22;3644;53.480;10.004;2022-12-29T04:42:46;11.60;99.90
7206;DHT22;3644;53.480;10.004;2022-12-29T04:45:11;11.60;99.90
7206;DHT22;3644;53.480;10.004;2022-12-29T04:47:37;11.50;99.90
7206;DHT22;3644;53.480;10.004;2022-12-29T04:50:03;11.50;99.90
7206;DHT22;3644;53.480;10.004;2022-12-29T04:52:28;11.60;99.90
7206;DHT22;3644;53.480;10.004;2022-12-29T04:54:54;11.70;99.90
7206;DHT22;3644;53.480;10.004;2022-12-29T04:57:19;11.70;99.90
7206;DHT22;3644;53.480;10.004;2022-12-29T04:59:45;11.60;99.90
7206;DHT22;3644;53.480;10.004;2022-12-29T05:02:10;11.60;99.90
7206;DHT22;3644;53.480;10.004;2022-12-29T05:04:36;11.60;99.90
7206;DHT22;3644;53.480;10.004;2022-12-29T05:07:01;11.50;99.90
7206;DHT22;3644;53.480;10.004;2022-12-29T05:09:27;11.60;99.90
7206;DHT22;3644;53.480;10.004;2022-12-29T05:11:52;11.60;99.90
7206;DHT22;3644;53.480;10.004;2022-12-29T05:14:18;11.60;99.90
7206;DHT22;3644;53.480;10.004;2022-12-29T05:16:43;11.60;99.90
7206;DHT22;3644;53.480;10.004;2022-12-29T05:19:09;11.60;99.90
7206;DHT22;3644;53.480;10.004;2022-12-29T05:21:34;11.60;99.90
7206;DHT22;3644;53.480;10.004;2022-12-29T05:24:00;11.60;99.90
7206;DHT22;3644;53.480;10.004;2022-12-29T05:26:25;11.70;99.90
7206;DHT22;3644;53.480;10.004;2022-12-29T05:28:51;11.80;99.90
7206;DHT22;3644;53.480;10.004;2022-12-29T05:31:17;11.70;99.90
7206;DHT22;3644;53.480;10.004;2022-12-29T05:33:42;11.80;99.90
7206;DHT22;3644;53.480;10.004;2022-12-29T05:36:08;11.70;99.90
7206;DHT22;3644;53.480;10.004;2022-12-29T05:38:34;11.70;99.90
7206;DHT22;3644;53.480;10.004;2022-12-29T05:41:00;11.60;99.90
7206;DHT22;3644;53.480;10.004;2022-12-29T05:43:25;11.70;99.90
7206;DHT22;3644;53.480;10.004;2022-12-29T05:45:51;11.80;99.90
7206;DHT22;3644;53.480;10.004;2022-12-29T05:48:17;11.80;99.90
7206;DHT22;3644;53.480;10.004;2022-12-29T05:50:47;11.90;99.90
7206;DHT22;3644;53.480;10.004;2022-12-29T05:53:12;11.90;99.90
7206;DHT22;3644;53.480;10.004;2022-12-29T05:55:38;11.90;99.90
7206;DHT22;3644;53.480;10.004;2022-12-29T05:58:03;11.80;99.90
7206;DHT22;3644;53.480;10.004;2022-12-29T06:00:29;11.90;99.90
7206;DHT22;3644;53.480;10.004;2022-12-29T06:02:54;11.80;99.90
7206;DHT22;3644;53.480;10.004;2022-12-29T06:05:20;11.90;99.90
7206;DHT22;3644;53.480;10.004;2022-12-29T06:07:45;11.90;99.90
7206;DHT22;3644;53.480;10.004;2022-12-29T06:10:12;11.90;99.90
7206;DHT22;3644;53.480;10.004;2022-12-29T06:12:37;11.90;99.90
7206;DHT22;3644;53.480;10.004;2022-12-29T06:15:03;11.90;99.90
7206;DHT22;3644;53.480;10.004;2022-12-29T06:17:29;11.80;99.90
7206;DHT22;3644;53.480;10.004;2022-12-29T06:19:54;11.90;99.90
7206;DHT22;3644;53.480;10.004;2022-12-29T06:22:20;11.90;99.90
7206;DHT22;3644;53.480;10.004;2022-12-29T06:24:45;12.00;99.90
7206;DHT22;3644;53.480;10.004;2022-12-29T06:27:11;11.90;99.90
7206;DHT22;3644;53.480;10.004;2022-12-29T06:29:36;11.80;99.90
7206;DHT22;3644;53.480;10.004;2022-12-29T06:32:03;11.90;99.90
7206;DHT22;3644;53.480;10.004;2022-12-29T06:34:29;11.90;99.90
7206;DHT22;3644;53.480;10.004;2022-12-29T06:36:54;11.90;99.90
7206;DHT22;3644;53.480;10.004;2022-12-29T06:39:20;11.90;99.90
7206;DHT22;3644;53.480;10.004;2022-12-29T06:41:45;11.80;99.90
7206;DHT22;3644;53.480;10.004;2022-12-29T06:44:11;11.80;99.90
7206;DHT22;3644;53.480;10.004;2022-12-29T06:46:36;11.70;99.90
7206;DHT22;3644;53.480;10.004;2022-12-29T06:49:02;11.70;99.90
7206;DHT22;3644;53.480;10.004;2022-12-29T06:51:27;11.70;99.90
7206;DHT22;3644;53.480;10.004;2022-12-29T06:53:53;11.70;99.90
7206;DHT22;3644;53.480;10.004;2022-12-29T06:56:18;11.90;99.90
7206;DHT22;3644;53.480;10.004;2022-12-29T06:58:44;11.90;99.90
7206;DHT22;3644;53.480;10.004;2022-12-29T07:01:09;12.00;99.90
7206;DHT22;3644;53.480;10.004;2022-12-29T07:03:35;11.90;99.90
7206;DHT22;3644;53.480;10.004;2022-12-29T07:06:00;12.00;99.90
7206;DHT22;3644;53.480;10.004;2022-12-29T07:08:26;12.00;99.90
7206;DHT22;3644;53.480;10.004;2022-12-29T07:10:51;12.00;99.90
7206;DHT22;3644;53.480;10.004;2022-12-29T07:13:17;12.10;99.90
7206;DHT22;3644;53.480;10.004;2022-12-29T07:15:42;12.10;99.90
7206;DHT22;3644;53.480;10.004;2022-12-29T07:18:08;12.10;99.90
7206;DHT22;3644;53.480;10.004;2022-12-29T07:20:33;12.10;99.90
7206;DHT22;3644;53.480;10.004;2022-12-29T07:22:59;12.10;99.90
7206;DHT22;3644;53.480;10.004;2022-12-29T07:25:24;12.20;99.90
7206;DHT22;3644;53.480;10.004;2022-12-29T07:27:50;12.10;99.90
7206;DHT22;3644;53.480;10.004;2022-12-29T07:30:15;12.10;99.90
7206;DHT22;3644;53.480;10.004;2022-12-29T07:32:41;12.10;99.90
7206;DHT22;3644;53.480;10.004;2022-12-29T07:35:07;12.00;99.90
7206;DHT22;3644;53.480;10.004;2022-12-29T07:37:33;12.00;99.90
7206;DHT22;3644;53.480;10.004;2022-12-29T07:40:00;11.80;99.90
7206;DHT22;3644;53.480;10.004;2022-12-29T07:42:26;11.80;99.90
7206;DHT22;3644;53.480;10.004;2022-12-29T07:44:52;12.00;99.90
7206;DHT22;3644;53.480;10.004;2022-12-29T07:47:17;12.00;99.90
7206;DHT22;3644;53.480;10.004;2022-12-29T07:49:43;12.00;99.90
7206;DHT22;3644;53.480;10.004;2022-12-29T07:52:08;11.90;99.90
7206;DHT22;3644;53.480;10.004;2022-12-29T07:54:34;11.80;99.90
7206;DHT22;3644;53.480;10.004;2022-12-29T07:56:59;11.80;99.90
7206;DHT22;3644;53.480;10.004;2022-12-29T07:59:25;11.90;99.90
7206;DHT22;3644;53.480;10.004;2022-12-29T08:01:51;11.90;99.90
7206;DHT22;3644;53.480;10.004;2022-12-29T08:04:16;12.00;99.90
7206;DHT22;3644;53.480;10.004;2022-12-29T08:06:42;12.10;99.90
7206;DHT22;3644;53.480;10.004;2022-12-29T08:09:08;12.00;99.90
7206;DHT22;3644;53.480;10.004;2022-12-29T08:11:33;12.00;99.90
7206;DHT22;3644;53.480;10.004;2022-12-29T08:13:59;12.00;99.90
7206;DHT22;3644;53.480;10.004;2022-12-29T08:16:24;12.00;99.90
7206;DHT22;3644;53.480;10.004;2022-12-29T08:18:50;11.80;99.90
7206;DHT22;3644;53.480;10.004;2022-12-29T08:21:15;11.80;99.90
7206;DHT22;3644;53.480;10.004;2022-12-29T08:23:41;12.00;99.90
7206;DHT22;3644;53.480;10.004;2022-12-29T08:26:06;11.80;99.90
7206;DHT22;3644;53.480;10.004;2022-12-29T08:28:32;11.80;99.90
7206;DHT22;3644;53.480;10.004;2022-12-29T08:31:00;11.90;99.90
7206;DHT22;3644;53.480;10.004;2022-12-29T08:33:27;11.80;99.90
7206;DHT22;3644;53.480;10.004;2022-12-29T08:35:59;11.70;99.90
7206;DHT22;3644;53.480;10.004;2022-12-29T08:38:24;11.80;99.90
7206;DHT22;3644;53.480;10.004;2022-12-29T08:40:51;11.80;99.90
7206;DHT22;3644;53.480;10.004;2022-12-29T08:43:16;11.70;99.90
7206;DHT22;3644;53.480;10.004;2022-12-29T08:45:43;11.60;99.90
7206;DHT22;3644;53.480;10.004;2022-12-29T08:48:08;11.70;99.90
7206;DHT22;3644;53.480;10.004;2022-12-29T08:50:34;11.80;99.90
7206;DHT22;3644;53.480;10.004;2022-12-29T08:52:59;11.70;99.90
7206;DHT22;3644;53.480;10.004;2022-12-29T08:55:25;11.60;99.90
7206;DHT22;3644;53.480;10.004;2022-12-29T08:57:50;11.80;99.90
7206;DHT22;3644;53.480;10.004;2022-12-29T09:00:17;11.80;99.90
7206;DHT22;3644;53.480;10.004;2022-12-29T09:02:43;11.90;99.90
7206;DHT22;3644;53.480;10.004;2022-12-29T09:05:09;12.00;99.90
7206;DHT22;3644;53.480;10.004;2022-12-29T09:07:35;11.90;99.90
7206;DHT22;3644;53.480;10.004;2022-12-29T09:10:00;11.80;99.90
7206;DHT22;3644;53.480;10.004;2022-12-29T09:12:26;11.60;99.90
7206;DHT22;3644;53.480;10.004;2022-12-29T09:14:51;11.70;99.90
7206;DHT22;3644;53.480;10.004;2022-12-29T09:17:17;11.80;99.90
7206;DHT22;3644;53.480;10.004;2022-12-29T09:20:01;11.70;99.90
7206;DHT22;3644;53.480;10.004;2022-12-29T09:22:27;11.70;99.90
7206;DHT22;3644;53.480;10.004;2022-12-29T09:24:52;11.80;99.90
7206;DHT22;3644;53.480;10.004;2022-12-29T09:27:18;11.80;99.90
7206;DHT22;3644;53.480;10.004;2022-12-29T09:29:43;11.80;99.90
7206;DHT22;3644;53.480;10.004;2022-12-29T09:32:09;11.70;99.90
7206;DHT22;3644;53.480;10.004;2022-12-29T09:34:34;11.70;99.90
7206;DHT22;3644;53.480;10.004;2022-12-29T09:37:00;11.70;99.90
7206;DHT22;3644;53.480;10.004;2022-12-29T09:39:25;11.60;99.90
7206;DHT22;3644;53.480;10.004;2022-12-29T09:47:25;11.70;99.90
7206;DHT22;3644;53.480;10.004;2022-12-29T09:49:58;11.70;99.90
7206;DHT22;3644;53.480;10.004;2022-12-29T09:52:32;11.70;99.90
7206;DHT22;3644;53.480;10.004;2022-12-29T09:55:24;11.70;99.90
7206;DHT22;3644;53.480;10.004;2022-12-29T09:58:09;11.70;99.90
7206;DHT22;3644;53.480;10.004;2022-12-29T10:03:16;11.90;99.90
7206;DHT22;3644;53.480;10.004;2022-12-29T10:06:02;11.70;99.90
7206;DHT22;3644;53.480;10.004;2022-12-29T10:14:21;12.00;99.90
7206;DHT22;3644;53.480;10.004;2022-12-29T10:22:59;12.00;99.90
7206;DHT22;3644;53.480;10.004;2022-12-29T10:25:19;11.80;99.90
7206;DHT22;3644;53.480;10.004;2022-12-29T10:27:50;11.70;99.90
7206;DHT22;3644;53.480;10.004;2022-12-29T10:30:16;11.80;99.90
7206;DHT22;3644;53.480;10.004;2022-12-29T10:32:57;11.90;99.90
7206;DHT22;3644;53.480;10.004;2022-12-29T10:35:26;12.00;99.90
7206;DHT22;3644;53.480;10.004;2022-12-29T10:40:45;12.10;99.90
7206;DHT22;3644;53.480;10.004;2022-12-29T10:43:39;12.10;99.90
7206;DHT22;3644;53.480;10.004;2022-12-29T10:46:14;12.00;99.90
7206;DHT22;3644;53.480;10.004;2022-12-29T10:48:40;12.00;99.90
7206;DHT22;3644;53.480;10.004;2022-12-29T10:51:11;12.00;99.90
7206;DHT22;3644;53.480;10.004;2022-12-29T10:53:58;11.90;99.90
7206;DHT22;3644;53.480;10.004;2022-12-29T10:56:38;11.90;99.90
7206;DHT22;3644;53.480;10.004;2022-12-29T10:59:26;12.10;99.90
7206;DHT22;3644;53.480;10.004;2022-12-29T11:05:00;12.10;99.90
7206;DHT22;3644;53.480;10.004;2022-12-29T11:07:30;12.10;99.90
7206;DHT22;3644;53.480;10.004;2022-12-29T11:10:16;12.10;99.90
7206;DHT22;3644;53.480;10.004;2022-12-29T11:13:00;12.20;99.90
7206;DHT22;3644;53.480;10.004;2022-12-29T11:15:26;12.20;99.90
7206;DHT22;3644;53.480;10.004;2022-12-29T11:17:53;12.20;99.90
7206;DHT22;3644;53.480;10.004;2022-12-29T11:20:36;12.30;99.90
7206;DHT22;3644;53.480;10.004;2022-12-29T11:23:04;12.20;99.90
7206;DHT22;3644;53.480;10.004;2022-12-29T11:25:30;12.10;99.90
7206;DHT22;3644;53.480;10.004;2022-12-29T11:27:59;12.10;99.90
7206;DHT22;3644;53.480;10.004;2022-12-29T11:30:28;12.10;99.90
7206;DHT22;3644;53.480;10.004;2022-12-29T11:32:55;12.00;99.90
7206;DHT22;3644;53.480;10.004;2022-12-29T11:35:41;12.10;99.90
7206;DHT22;3644;53.480;10.004;2022-12-29T11:38:20;12.20;99.90
7206;DHT22;3644;53.480;10.004;2022-12-29T11:40:46;12.30;99.90
7206;DHT22;3644;53.480;10.004;2022-12-29T11:43:23;12.40;99.90
7206;DHT22;3644;53.480;10.004;2022-12-29T11:45:52;12.40;99.90
7206;DHT22;3644;53.480;10.004;2022-12-29T11:48:20;12.50;99.90
7206;DHT22;3644;53.480;10.004;2022-12-29T11:50:54;12.40;99.90
7206;DHT22;3644;53.480;10.004;2022-12-29T11:53:23;12.50;99.90
7206;DHT22;3644;53.480;10.004;2022-12-29T11:55:58;12.60;99.90
7206;DHT22;3644;53.480;10.004;2022-12-29T11:58:34;12.40;99.90
7206;DHT22;3644;53.480;10.004;2022-12-29T12:01:10;12.40;99.90
7206;DHT22;3644;53.480;10.004;2022-12-29T12:03:45;12.40;99.90
7206;DHT22;3644;53.480;10.004;2022-12-29T12:06:16;12.30;99.90
7206;DHT22;3644;53.480;10.004;2022-12-29T12:08:46;12.20;99.90
7206;DHT22;3644;53.480;10.004;2022-12-29T12:11:16;12.10;99.90
7206;DHT22;3644;53.480;10.004;2022-12-29T12:14:11;12.10;99.90
7206;DHT22;3644;53.480;10.004;2022-12-29T12:22:08;12.40;99.90
7206;DHT22;3644;53.480;10.004;2022-12-29T12:24:44;12.20;99.90
7206;DHT22;3644;53.480;10.004;2022-12-29T12:27:26;12.30;99.90
7206;DHT22;3644;53.480;10.004;2022-12-29T12:30:16;12.30;99.90
7206;DHT22;3644;53.480;10.004;2022-12-29T12:33:05;12.30;99.90
7206;DHT22;3644;53.480;10.004;2022-12-29T12:39:01;12.30;99.90
7206;DHT22;3644;53.480;10.004;2022-12-29T12:44:28;12.40;99.90
7206;DHT22;3644;53.480;10.004;2022-12-29T12:47:19;12.40;99.90
7206;DHT22;3644;53.480;10.004;2022-12-29T12:50:12;12.30;99.90
7206;DHT22;3644;53.480;10.004;2022-12-29T12:52:44;12.30;99.90
7206;DHT22;3644;53.480;10.004;2022-12-29T12:58:24;12.30;99.90
7206;DHT22;3644;53.480;10.004;2022-12-29T13:01:01;12.30;99.90
7206;DHT22;3644;53.480;10.004;2022-12-29T13:06:18;12.20;99.90
7206;DHT22;3644;53.480;10.004;2022-12-29T13:09:10;12.20;99.90
7206;DHT22;3644;53.480;10.004;2022-12-29T13:12:18;12.20;99.90
7206;DHT22;3644;53.480;10.004;2022-12-29T13:15:19;12.40;99.90
7206;DHT22;3644;53.480;10.004;2022-12-29T13:17:48;12.40;99.90
7206;DHT22;3644;53.480;10.004;2022-12-29T13:20:38;12.40;99.90
7206;DHT22;3644;53.480;10.004;2022-12-29T13:23:26;12.50;99.90
7206;DHT22;3644;53.480;10.004;2022-12-29T13:26:12;12.60;99.90
7206;DHT22;3644;53.480;10.004;2022-12-29T13:31:50;12.60;99.90
7206;DHT22;3644;53.480;10.004;2022-12-29T13:37:15;12.70;99.90
7206;DHT22;3644;53.480;10.004;2022-12-29T13:39:51;12.70;99.90
7206;DHT22;3644;53.480;10.004;2022-12-29T13:42:19;12.60;99.90
7206;DHT22;3644;53.480;10.004;2022-12-29T13:45:03;12.60;99.90
7206;DHT22;3644;53.480;10.004;2022-12-29T13:47:35;12.60;99.90
7206;DHT22;3644;53.480;10.004;2022-12-29T13:50:05;12.50;99.90
7206;DHT22;3644;53.480;10.004;2022-12-29T13:55:26;12.40;99.90
7206;DHT22;3644;53.480;10.004;2022-12-29T14:00:33;12.20;99.90
7206;DHT22;3644;53.480;10.004;2022-12-29T14:05:45;12.10;99.90
7206;DHT22;3644;53.480;10.004;2022-12-29T14:08:27;12.00;99.90
7206;DHT22;3644;53.480;10.004;2022-12-29T14:10:53;12.00;99.90
7206;DHT22;3644;53.480;10.004;2022-12-29T14:13:21;12.20;99.90
7206;DHT22;3644;53.480;10.004;2022-12-29T14:15:55;12.10;99.90
7206;DHT22;3644;53.480;10.004;2022-12-29T14:18:25;12.20;99.90
7206;DHT22;3644;53.480;10.004;2022-12-29T14:20:53;11.80;99.90
7206;DHT22;3644;53.480;10.004;2022-12-29T14:23:46;11.70;99.90
7206;DHT22;3644;53.480;10.004;2022-12-29T14:28:56;11.80;99.90
7206;DHT22;3644;53.480;10.004;2022-12-29T14:36:36;11.40;99.90
7206;DHT22;3644;53.480;10.004;2022-12-29T14:39:02;10.90;99.90
7206;DHT22;3644;53.480;10.004;2022-12-29T14:41:40;10.70;99.90
7206;DHT22;3644;53.480;10.004;2022-12-29T14:49:21;10.70;99.90
7206;DHT22;3644;53.480;10.004;2022-12-29T14:51:51;10.80;99.90
7206;DHT22;3644;53.480;10.004;2022-12-29T14:57:06;10.70;99.90
7206;DHT22;3644;53.480;10.004;2022-12-29T14:59:34;10.70;99.90
7206;DHT22;3644;53.480;10.004;2022-12-29T15:02:03;10.70;99.90
7206;DHT22;3644;53.480;10.004;2022-12-29T15:04:33;10.50;99.90
7206;DHT22;3644;53.480;10.004;2022-12-29T15:07:01;10.50;99.90
7206;DHT22;3644;53.480;10.004;2022-12-29T15:09:37;10.60;99.90
7206;DHT22;3644;53.480;10.004;2022-12-29T15:15:10;10.80;99.90
7206;DHT22;3644;53.480;10.004;2022-12-29T15:17:41;10.90;99.90
7206;DHT22;3644;53.480;10.004;2022-12-29T15:20:28;10.60;99.90
7206;DHT22;3644;53.480;10.004;2022-12-29T15:22:56;10.70;99.90
7206;DHT22;3644;53.480;10.004;2022-12-29T15:25:23;10.60;99.90
7206;DHT22;3644;53.480;10.004;2022-12-29T15:27:56;10.50;99.90
7206;DHT22;3644;53.480;10.004;2022-12-29T15:30:22;10.60;99.90
7206;DHT22;3644;53.480;10.004;2022-12-29T15:32:49;10.60;99.90
7206;DHT22;3644;53.480;10.004;2022-12-29T15:35:29;10.60;99.90
7206;DHT22;3644;53.480;10.004;2022-12-29T15:37:55;10.60;99.90
7206;DHT22;3644;53.480;10.004;2022-12-29T15:40:29;10.70;99.90
7206;DHT22;3644;53.480;10.004;2022-12-29T15:43:13;10.70;99.90
7206;DHT22;3644;53.480;10.004;2022-12-29T15:45:42;10.50;99.90
7206;DHT22;3644;53.480;10.004;2022-12-29T15:48:16;10.30;99.90
7206;DHT22;3644;53.480;10.004;2022-12-29T15:50:42;10.30;99.90
7206;DHT22;3644;53.480;10.004;2022-12-29T15:53:12;10.30;99.90
7206;DHT22;3644;53.480;10.004;2022-12-29T15:55:42;10.50;99.90
7206;DHT22;3644;53.480;10.004;2022-12-29T15:58:24;10.30;99.90
7206;DHT22;3644;53.480;10.004;2022-12-29T16:00:52;10.20;99.90
7206;DHT22;3644;53.480;10.004;2022-12-29T16:03:18;10.20;99.90
7206;DHT22;3644;53.480;10.004;2022-12-29T16:05:54;10.20;99.90
7206;DHT22;3644;53.480;10.004;2022-12-29T16:08:38;10.30;99.90
7206;DHT22;3644;53.480;10.004;2022-12-29T16:11:26;10.40;99.90
7206;DHT22;3644;53.480;10.004;2022-12-29T16:13:53;10.30;99.90
7206;DHT22;3644;53.480;10.004;2022-12-29T16:16:23;10.20;99.90
7206;DHT22;3644;53.480;10.004;2022-12-29T16:18:52;10.40;99.90
7206;DHT22;3644;53.480;10.004;2022-12-29T16:21:34;10.40;99.90
7206;DHT22;3644;53.480;10.004;2022-12-29T16:24:05;10.40;99.90
7206;DHT22;3644;53.480;10.004;2022-12-29T16:26:32;10.50;99.90
7206;DHT22;3644;53.480;10.004;2022-12-29T16:29:00;10.60;99.90
7206;DHT22;3644;53.480;10.004;2022-12-29T16:31:35;10.70;99.90
7206;DHT22;3644;53.480;10.004;2022-12-29T16:36:55;10.80;99.90
7206;DHT22;3644;53.480;10.004;2022-12-29T16:39:24;10.80;99.90
7206;DHT22;3644;53.480;10.004;2022-12-29T16:41:51;10.80;99.90
7206;DHT22;3644;53.480;10.004;2022-12-29T16:44:22;10.80;99.90
7206;DHT22;3644;53.480;10.004;2022-12-29T16:49:37;10.60;99.90
7206;DHT22;3644;53.480;10.004;2022-12-29T16:52:17;10.60;99.90
7206;DHT22;3644;53.480;10.004;2022-12-29T16:54:50;10.70;99.90
7206;DHT22;3644;53.480;10.004;2022-12-29T16:57:31;10.60;99.90
7206;DHT22;3644;53.480;10.004;2022-12-29T16:59:59;10.70;99.90
7206;DHT22;3644;53.480;10.004;2022-12-29T17:02:28;10.70;99.90
7206;DHT22;3644;53.480;10.004;2022-12-29T17:04:54;10.80;99.90
7206;DHT22;3644;53.480;10.004;2022-12-29T17:07:25;10.70;99.90
7206;DHT22;3644;53.480;10.004;2022-12-29T17:09:52;10.80;99.90
7206;DHT22;3644;53.480;10.004;2022-12-29T17:12:24;10.70;99.90
7206;DHT22;3644;53.480;10.004;2022-12-29T17:14:54;10.60;99.90
7206;DHT22;3644;53.480;10.004;2022-12-29T17:20:18;10.70;99.90
7206;DHT22;3644;53.480;10.004;2022-12-29T17:22:44;10.60;99.90
7206;DHT22;3644;53.480;10.004;2022-12-29T17:25:19;10.50;99.90
7206;DHT22;3644;53.480;10.004;2022-12-29T17:28:05;10.50;99.90
7206;DHT22;3644;53.480;10.004;2022-12-29T17:30:35;10.50;99.90
7206;DHT22;3644;53.480;10.004;2022-12-29T17:33:06;10.50;99.90
7206;DHT22;3644;53.480;10.004;2022-12-29T17:35:34;10.50;99.90
7206;DHT22;3644;53.480;10.004;2022-12-29T17:37:59;10.60;99.90
7206;DHT22;3644;53.480;10.004;2022-12-29T17:40:30;10.50;99.90
7206;DHT22;3644;53.480;10.004;2022-12-29T17:42:57;10.50;99.90
7206;DHT22;3644;53.480;10.004;2022-12-29T17:45:26;10.50;99.90
7206;DHT22;3644;53.480;10.004;2022-12-29T17:47:52;10.50;99.90
7206;DHT22;3644;53.480;10.004;2022-12-29T17:50:20;10.50;99.90
7206;DHT22;3644;53.480;10.004;2022-12-29T17:52:50;10.50;99.90
7206;DHT22;3644;53.480;10.004;2022-12-29T17:55:18;10.50;99.90
7206;DHT22;3644;53.480;10.004;2022-12-29T17:57:44;10.60;99.90
7206;DHT22;3644;53.480;10.004;2022-12-29T18:00:18;10.70;99.90
7206;DHT22;3644;53.480;10.004;2022-12-29T18:02:44;10.60;99.90
7206;DHT22;3644;53.480;10.004;2022-12-29T18:05:18;10.40;99.90
7206;DHT22;3644;53.480;10.004;2022-12-29T18:07:43;10.50;99.90
7206;DHT22;3644;53.480;10.004;2022-12-29T18:10:09;10.40;99.90
7206;DHT22;3644;53.480;10.004;2022-12-29T18:12:43;10.40;99.90